sensor_id;sensor_type;location;lat;lon;timestamp;temperature;humidity
14049;DHT22;7099;53.922;10.728;2023-02-01T00:02:26;5.90;66.40
14049;DHT22;7099;53.922;10.728;2023-02-01T00:06:32;6.00;66.60
14049;DHT22;7099;53.922;10.728;2023-02-01T00:10:37;5.90;66.70
14049;DHT22;7099;53.922;10.728;2023-02-01T00:14:43;5.90;66.70
14049;DHT22;7099;53.922;10.728;2023-02-01T00:18:50;5.90;66.60
14049;DHT22;7099;53.922;10.728;2023-02-01T00:22:56;5.90;66.40
14049;DHT22;7099;53.922;10.728;2023-02-01T00:27:02;5.90;66.40
14049;DHT22;7099;53.922;10.728;2023-02-01T00:31:07;5.90;66.60
14049;DHT22;7099;53.922;10.728;2023-02-01T00:35:13;5.90;66.40
14049;DHT22;7099;53.922;10.728;2023-02-01T00:39:19;6.00;66.50
14049;DHT22;7099;53.922;10.728;2023-02-01T00:43:24;5.90;66.40
14049;DHT22;7099;53.922;10.728;2023-02-01T00:47:30;6.00;66.60
14049;DHT22;7099;53.922;10.728;2023-02-01T00:51:36;6.00;66.60
14049;DHT22;7099;53.922;10.728;2023-02-01T00:55:45;5.90;67.10
14049;DHT22;7099;53.922;10.728;2023-02-01T00:59:51;5.90;67.40
14049;DHT22;7099;53.922;10.728;2023-02-01T01:03:59;5.80;67.60
14049;DHT22;7099;53.922;10.728;2023-02-01T01:08:04;5.90;67.80
14049;DHT22;7099;53.922;10.728;2023-02-01T01:12:10;5.90;68.40
14049;DHT22;7099;53.922;10.728;2023-02-01T01:16:17;5.90;67.80
14049;DHT22;7099;53.922;10.728;2023-02-01T01:20:23;5.90;67.70
14049;DHT22;7099;53.922;10.728;2023-02-01T01:24:28;5.90;67.60
14049;DHT22;7099;53.922;10.728;2023-02-01T01:28:34;5.90;67.00
14049;DHT22;7099;53.922;10.728;2023-02-01T01:32:41;5.90;67.10
14049;DHT22;7099;53.922;10.728;2023-02-01T01:36:46;6.00;66.90
14049;DHT22;7099;53.922;10.728;2023-02-01T01:40:53;6.00;66.70
14049;DHT22;7099;53.922;10.728;2023-02-01T01:45:03;6.00;66.40
14049;DHT22;7099;53.922;10.728;2023-02-01T01:49:20;6.00;66.40
14049;DHT22;7099;53.922;10.728;2023-02-01T01:54:04;6.00;66.40
14049;DHT22;7099;53.922;10.728;2023-02-01T01:58:09;6.00;66.40
14049;DHT22;7099;53.922;10.728;2023-02-01T02:02:17;5.90;66.30
14049;DHT22;7099;53.922;10.728;2023-02-01T02:06:32;6.00;66.20
14049;DHT22;7099;53.922;10.728;2023-02-01T02:11:00;5.90;66.00
14049;DHT22;7099;53.922;10.728;2023-02-01T02:15:07;5.90;65.90
14049;DHT22;7099;53.922;10.728;2023-02-01T02:41:59;6.00;66.00
14049;DHT22;7099;53.922;10.728;2023-02-01T02:46:37;5.90;66.20
14049;DHT22;7099;53.922;10.728;2023-02-01T02:51:15;6.00;66.60
14049;DHT22;7099;53.922;10.728;2023-02-01T02:55:45;6.00;67.00
14049;DHT22;7099;53.922;10.728;2023-02-01T02:59:52;6.00;67.10
14049;DHT22;7099;53.922;10.728;2023-02-01T03:04:17;6.00;67.30
14049;DHT22;7099;53.922;10.728;2023-02-01T03:08:28;6.00;67.40
14049;DHT22;7099;53.922;10.728;2023-02-01T03:12:37;6.00;67.60
14049;DHT22;7099;53.922;10.728;2023-02-01T03:17:14;6.00;67.80
14049;DHT22;7099;53.922;10.728;2023-02-01T03:21:26;6.10;67.90
14049;DHT22;7099;53.922;10.728;2023-02-01T03:25:33;6.00;67.90
14049;DHT22;7099;53.922;10.728;2023-02-01T03:34:23;6.00;68.30
14049;DHT22;7099;53.922;10.728;2023-02-01T03:39:04;6.00;68.30
14049;DHT22;7099;53.922;10.728;2023-02-01T03:43:17;6.00;68.80
14049;DHT22;7099;53.922;10.728;2023-02-01T03:47:27;6.10;68.90
14049;DHT22;7099;53.922;10.728;2023-02-01T03:51:36;6.00;69.20
14049;DHT22;7099;53.922;10.728;2023-02-01T03:55:44;6.00;69.10
14049;DHT22;7099;53.922;10.728;2023-02-01T03:59:49;6.00;68.80
14049;DHT22;7099;53.922;10.728;2023-02-01T04:03:56;6.00;68.10
14049;DHT22;7099;53.922;10.728;2023-02-01T04:08:03;6.00;67.60
14049;DHT22;7099;53.922;10.728;2023-02-01T04:12:10;5.90;67.40
14049;DHT22;7099;53.922;10.728;2023-02-01T04:16:36;5.90;67.60
14049;DHT22;7099;53.922;10.728;2023-02-01T04:21:02;5.80;68.20
14049;DHT22;7099;53.922;10.728;2023-02-01T04:25:29;5.80;68.90
14049;DHT22;7099;53.922;10.728;2023-02-01T04:29:55;5.80;70.40
14049;DHT22;7099;53.922;10.728;2023-02-01T04:34:23;5.70;71.60
14049;DHT22;7099;53.922;10.728;2023-02-01T04:38:51;5.60;72.10
14049;DHT22;7099;53.922;10.728;2023-02-01T04:43:17;5.50;72.10
14049;DHT22;7099;53.922;10.728;2023-02-01T04:47:43;5.40;72.90
14049;DHT22;7099;53.922;10.728;2023-02-01T04:52:09;5.30;72.30
14049;DHT22;7099;53.922;10.728;2023-02-01T04:56:35;5.30;72.50
14049;DHT22;7099;53.922;10.728;2023-02-01T05:01:04;5.30;72.70
14049;DHT22;7099;53.922;10.728;2023-02-01T05:05:31;5.30;72.70
14049;DHT22;7099;53.922;10.728;2023-02-01T05:09:57;5.30;72.40
14049;DHT22;7099;53.922;10.728;2023-02-01T05:14:22;5.20;72.40
14049;DHT22;7099;53.922;10.728;2023-02-01T05:18:48;5.10;72.80
14049;DHT22;7099;53.922;10.728;2023-02-01T05:23:14;5.10;73.40
14049;DHT22;7099;53.922;10.728;2023-02-01T05:27:40;5.00;73.30
14049;DHT22;7099;53.922;10.728;2023-02-01T05:32:06;5.00;73.30
14049;DHT22;7099;53.922;10.728;2023-02-01T05:36:46;5.00;73.40
14049;DHT22;7099;53.922;10.728;2023-02-01T05:41:12;4.90;73.50
14049;DHT22;7099;53.922;10.728;2023-02-01T05:45:38;4.80;73.80
14049;DHT22;7099;53.922;10.728;2023-02-01T05:50:05;4.80;73.70
14049;DHT22;7099;53.922;10.728;2023-02-01T05:54:31;4.70;73.20
14049;DHT22;7099;53.922;10.728;2023-02-01T05:58:57;4.50;73.40
14049;DHT22;7099;53.922;10.728;2023-02-01T06:03:23;4.50;73.50
14049;DHT22;7099;53.922;10.728;2023-02-01T06:07:49;4.50;73.50
14049;DHT22;7099;53.922;10.728;2023-02-01T06:12:15;4.60;73.60
14049;DHT22;7099;53.922;10.728;2023-02-01T06:16:41;4.50;73.60
14049;DHT22;7099;53.922;10.728;2023-02-01T06:21:07;4.50;74.10
14049;DHT22;7099;53.922;10.728;2023-02-01T06:25:34;4.50;74.10
14049;DHT22;7099;53.922;10.728;2023-02-01T06:30:00;4.50;74.50
14049;DHT22;7099;53.922;10.728;2023-02-01T06:34:25;4.50;74.70
14049;DHT22;7099;53.922;10.728;2023-02-01T06:38:51;4.40;74.90
14049;DHT22;7099;53.922;10.728;2023-02-01T06:43:17;4.50;75.30
14049;DHT22;7099;53.922;10.728;2023-02-01T06:47:43;4.50;75.20
14049;DHT22;7099;53.922;10.728;2023-02-01T06:52:09;4.50;75.30
14049;DHT22;7099;53.922;10.728;2023-02-01T06:56:35;4.50;76.00
14049;DHT22;7099;53.922;10.728;2023-02-01T07:01:05;4.50;75.40
14049;DHT22;7099;53.922;10.728;2023-02-01T07:05:32;4.50;75.70
14049;DHT22;7099;53.922;10.728;2023-02-01T07:09:57;4.50;75.50
14049;DHT22;7099;53.922;10.728;2023-02-01T07:14:23;4.50;75.60
14049;DHT22;7099;53.922;10.728;2023-02-01T07:18:51;4.50;75.40
14049;DHT22;7099;53.922;10.728;2023-02-01T07:23:17;4.50;75.40
14049;DHT22;7099;53.922;10.728;2023-02-01T07:27:43;4.50;75.50
14049;DHT22;7099;53.922;10.728;2023-02-01T07:32:09;4.50;75.70
14049;DHT22;7099;53.922;10.728;2023-02-01T07:36:34;4.50;75.70
14049;DHT22;7099;53.922;10.728;2023-02-01T07:41:03;4.50;75.80
14049;DHT22;7099;53.922;10.728;2023-02-01T07:45:30;4.50;75.80
14049;DHT22;7099;53.922;10.728;2023-02-01T07:49:56;4.50;75.80
14049;DHT22;7099;53.922;10.728;2023-02-01T07:54:22;4.50;75.80
14049;DHT22;7099;53.922;10.728;2023-02-01T07:58:49;4.50;75.80
14049;DHT22;7099;53.922;10.728;2023-02-01T08:03:16;4.60;76.20
14049;DHT22;7099;53.922;10.728;2023-02-01T08:07:42;4.60;76.30
14049;DHT22;7099;53.922;10.728;2023-02-01T08:12:08;4.60;76.20
14049;DHT22;7099;53.922;10.728;2023-02-01T08:16:34;4.60;76.30
14049;DHT22;7099;53.922;10.728;2023-02-01T08:21:07;4.60;76.60
14049;DHT22;7099;53.922;10.728;2023-02-01T08:25:34;4.70;77.20
14049;DHT22;7099;53.922;10.728;2023-02-01T08:30:01;4.80;77.20
14049;DHT22;7099;53.922;10.728;2023-02-01T08:34:28;4.90;77.70
14049;DHT22;7099;53.922;10.728;2023-02-01T08:38:54;5.00;77.70
14049;DHT22;7099;53.922;10.728;2023-02-01T08:43:20;5.10;77.60
14049;DHT22;7099;53.922;10.728;2023-02-01T08:47:46;5.10;77.60
14049;DHT22;7099;53.922;10.728;2023-02-01T08:52:12;5.20;77.30
14049;DHT22;7099;53.922;10.728;2023-02-01T08:56:40;5.20;76.20
14049;DHT22;7099;53.922;10.728;2023-02-01T09:01:13;5.20;76.00
14049;DHT22;7099;53.922;10.728;2023-02-01T09:05:40;5.10;75.50
14049;DHT22;7099;53.922;10.728;2023-02-01T09:10:14;5.10;75.90
14049;DHT22;7099;53.922;10.728;2023-02-01T09:14:45;5.20;75.60
14049;DHT22;7099;53.922;10.728;2023-02-01T09:19:11;5.20;75.20
14049;DHT22;7099;53.922;10.728;2023-02-01T09:23:51;5.30;74.80
14049;DHT22;7099;53.922;10.728;2023-02-01T09:28:18;5.40;75.10
14049;DHT22;7099;53.922;10.728;2023-02-01T09:32:24;5.60;75.40
14049;DHT22;7099;53.922;10.728;2023-02-01T09:36:31;5.70;75.30
14049;DHT22;7099;53.922;10.728;2023-02-01T09:40:42;5.80;74.60
14049;DHT22;7099;53.922;10.728;2023-02-01T09:49:16;6.00;73.10
14049;DHT22;7099;53.922;10.728;2023-02-01T09:58:06;6.10;71.80
14049;DHT22;7099;53.922;10.728;2023-02-01T10:02:24;6.10;70.80
14049;DHT22;7099;53.922;10.728;2023-02-01T10:06:49;6.20;71.10
14049;DHT22;7099;53.922;10.728;2023-02-01T10:11:19;6.30;70.40
14049;DHT22;7099;53.922;10.728;2023-02-01T10:25:42;6.60;69.70
14049;DHT22;7099;53.922;10.728;2023-02-01T10:30:06;6.60;69.60
14049;DHT22;7099;53.922;10.728;2023-02-01T10:34:24;6.70;69.80
14049;DHT22;7099;53.922;10.728;2023-02-01T10:38:33;6.80;70.60
14049;DHT22;7099;53.922;10.728;2023-02-01T10:42:39;6.70;69.80
14049;DHT22;7099;53.922;10.728;2023-02-01T10:46:45;6.80;69.70
14049;DHT22;7099;53.922;10.728;2023-02-01T10:51:16;6.80;70.10
14049;DHT22;7099;53.922;10.728;2023-02-01T10:55:37;6.90;69.90
14049;DHT22;7099;53.922;10.728;2023-02-01T10:59:46;7.00;69.20
14049;DHT22;7099;53.922;10.728;2023-02-01T11:04:02;7.10;69.00
14049;DHT22;7099;53.922;10.728;2023-02-01T11:08:15;7.20;68.80
14049;DHT22;7099;53.922;10.728;2023-02-01T11:12:27;7.20;68.60
14049;DHT22;7099;53.922;10.728;2023-02-01T11:16:38;7.20;68.60
14049;DHT22;7099;53.922;10.728;2023-02-01T11:20:46;7.10;68.80
14049;DHT22;7099;53.922;10.728;2023-02-01T11:24:54;7.10;69.10
14049;DHT22;7099;53.922;10.728;2023-02-01T11:29:05;7.10;70.30
14049;DHT22;7099;53.922;10.728;2023-02-01T11:33:20;6.90;70.70
14049;DHT22;7099;53.922;10.728;2023-02-01T11:37:31;6.90;71.40
14049;DHT22;7099;53.922;10.728;2023-02-01T11:41:54;6.80;71.60
14049;DHT22;7099;53.922;10.728;2023-02-01T11:46:18;6.70;71.90
14049;DHT22;7099;53.922;10.728;2023-02-01T11:50:37;6.70;71.80
14049;DHT22;7099;53.922;10.728;2023-02-01T11:54:58;6.60;71.10
14049;DHT22;7099;53.922;10.728;2023-02-01T11:59:46;6.60;71.20
14049;DHT22;7099;53.922;10.728;2023-02-01T12:18:15;6.70;72.50
14049;DHT22;7099;53.922;10.728;2023-02-01T12:27:05;6.80;72.80
14049;DHT22;7099;53.922;10.728;2023-02-01T12:31:55;6.80;72.60
14049;DHT22;7099;53.922;10.728;2023-02-01T12:36:22;6.70;73.80
14049;DHT22;7099;53.922;10.728;2023-02-01T12:45:24;6.60;74.00
14049;DHT22;7099;53.922;10.728;2023-02-01T12:58:39;5.90;72.10
14049;DHT22;7099;53.922;10.728;2023-02-01T13:03:05;5.70;72.40
14049;DHT22;7099;53.922;10.728;2023-02-01T13:07:45;5.60;73.10
14049;DHT22;7099;53.922;10.728;2023-02-01T13:12:22;5.50;73.60
14049;DHT22;7099;53.922;10.728;2023-02-01T13:16:35;5.50;74.00
14049;DHT22;7099;53.922;10.728;2023-02-01T13:25:12;5.60;74.30
14049;DHT22;7099;53.922;10.728;2023-02-01T13:29:23;5.60;74.20
14049;DHT22;7099;53.922;10.728;2023-02-01T13:33:40;5.60;74.20
14049;DHT22;7099;53.922;10.728;2023-02-01T13:38:40;5.70;74.00
14049;DHT22;7099;53.922;10.728;2023-02-01T13:43:26;5.70;74.00
14049;DHT22;7099;53.922;10.728;2023-02-01T13:47:42;5.70;73.30
14049;DHT22;7099;53.922;10.728;2023-02-01T13:51:54;5.80;73.50
14049;DHT22;7099;53.922;10.728;2023-02-01T13:56:09;5.80;73.30
14049;DHT22;7099;53.922;10.728;2023-02-01T14:00:36;5.80;72.70
14049;DHT22;7099;53.922;10.728;2023-02-01T14:04:49;5.90;71.80
14049;DHT22;7099;53.922;10.728;2023-02-01T14:17:38;5.80;71.30
14049;DHT22;7099;53.922;10.728;2023-02-01T14:21:52;5.80;71.50
14049;DHT22;7099;53.922;10.728;2023-02-01T14:26:11;5.70;71.90
14049;DHT22;7099;53.922;10.728;2023-02-01T14:30:19;5.70;71.40
14049;DHT22;7099;53.922;10.728;2023-02-01T14:38:52;5.70;72.00
14049;DHT22;7099;53.922;10.728;2023-02-01T14:42:58;5.70;72.00
14049;DHT22;7099;53.922;10.728;2023-02-01T14:51:28;5.70;71.60
14049;DHT22;7099;53.922;10.728;2023-02-01T14:55:48;5.60;71.70
14049;DHT22;7099;53.922;10.728;2023-02-01T15:00:18;5.70;71.60
14049;DHT22;7099;53.922;10.728;2023-02-01T15:04:26;5.70;71.20
14049;DHT22;7099;53.922;10.728;2023-02-01T15:08:37;5.70;71.40
14049;DHT22;7099;53.922;10.728;2023-02-01T15:12:45;5.60;71.50
14049;DHT22;7099;53.922;10.728;2023-02-01T15:16:53;5.60;71.80
14049;DHT22;7099;53.922;10.728;2023-02-01T15:21:01;5.50;71.90
14049;DHT22;7099;53.922;10.728;2023-02-01T15:25:33;5.50;72.20
14049;DHT22;7099;53.922;10.728;2023-02-01T15:29:41;5.50;72.50
14049;DHT22;7099;53.922;10.728;2023-02-01T15:33:56;5.50;72.40
14049;DHT22;7099;53.922;10.728;2023-02-01T15:42:29;5.50;72.70
14049;DHT22;7099;53.922;10.728;2023-02-01T15:46:38;5.40;72.50
14049;DHT22;7099;53.922;10.728;2023-02-01T15:50:45;5.40;72.50
14049;DHT22;7099;53.922;10.728;2023-02-01T15:54:54;5.40;72.40
14049;DHT22;7099;53.922;10.728;2023-02-01T15:59:12;5.40;72.50
14049;DHT22;7099;53.922;10.728;2023-02-01T16:03:40;5.50;72.80
14049;DHT22;7099;53.922;10.728;2023-02-01T16:08:06;5.40;73.10
14049;DHT22;7099;53.922;10.728;2023-02-01T16:12:34;5.40;73.10
14049;DHT22;7099;53.922;10.728;2023-02-01T16:16:55;5.50;72.90
14049;DHT22;7099;53.922;10.728;2023-02-01T16:21:03;5.50;72.80
14049;DHT22;7099;53.922;10.728;2023-02-01T16:25:08;5.50;72.70
14049;DHT22;7099;53.922;10.728;2023-02-01T16:29:14;5.50;72.50
14049;DHT22;7099;53.922;10.728;2023-02-01T16:33:21;5.60;72.40
14049;DHT22;7099;53.922;10.728;2023-02-01T16:37:28;5.50;72.30
14049;DHT22;7099;53.922;10.728;2023-02-01T16:41:37;5.50;72.20
14049;DHT22;7099;53.922;10.728;2023-02-01T16:45:45;5.50;72.10
14049;DHT22;7099;53.922;10.728;2023-02-01T16:49:55;5.50;72.00
14049;DHT22;7099;53.922;10.728;2023-02-01T16:54:01;5.40;72.00
14049;DHT22;7099;53.922;10.728;2023-02-01T16:58:07;5.40;71.90
14049;DHT22;7099;53.922;10.728;2023-02-01T17:02:17;5.40;72.40
14049;DHT22;7099;53.922;10.728;2023-02-01T17:06:30;5.40;71.80
14049;DHT22;7099;53.922;10.728;2023-02-01T17:10:37;5.40;71.80
14049;DHT22;7099;53.922;10.728;2023-02-01T17:14:44;5.40;71.60
14049;DHT22;7099;53.922;10.728;2023-02-01T17:19:02;5.40;71.30
14049;DHT22;7099;53.922;10.728;2023-02-01T17:23:09;5.40;71.10
14049;DHT22;7099;53.922;10.728;2023-02-01T17:27:17;5.50;71.00
14049;DHT22;7099;53.922;10.728;2023-02-01T17:31:22;5.50;70.60
14049;DHT22;7099;53.922;10.728;2023-02-01T17:35:28;5.60;70.50
14049;DHT22;7099;53.922;10.728;2023-02-01T17:39:36;5.60;70.50
14049;DHT22;7099;53.922;10.728;2023-02-01T17:44:00;5.60;70.20
14049;DHT22;7099;53.922;10.728;2023-02-01T17:48:06;5.70;70.10
14049;DHT22;7099;53.922;10.728;2023-02-01T17:52:16;5.70;70.10
14049;DHT22;7099;53.922;10.728;2023-02-01T17:56:24;5.80;69.90
14049;DHT22;7099;53.922;10.728;2023-02-01T18:00:30;5.70;69.40
14049;DHT22;7099;53.922;10.728;2023-02-01T18:04:35;5.70;69.50
14049;DHT22;7099;53.922;10.728;2023-02-01T18:08:43;5.80;69.40
14049;DHT22;7099;53.922;10.728;2023-02-01T18:12:49;5.80;69.60
14049;DHT22;7099;53.922;10.728;2023-02-01T18:16:55;5.80;69.30
14049;DHT22;7099;53.922;10.728;2023-02-01T18:21:01;5.80;69.10
14049;DHT22;7099;53.922;10.728;2023-02-01T18:25:24;5.90;68.60
14049;DHT22;7099;53.922;10.728;2023-02-01T18:29:34;5.90;67.80
14049;DHT22;7099;53.922;10.728;2023-02-01T18:33:39;6.00;68.10
14049;DHT22;7099;53.922;10.728;2023-02-01T18:37:46;6.00;67.70
14049;DHT22;7099;53.922;10.728;2023-02-01T18:41:52;6.00;67.60
14049;DHT22;7099;53.922;10.728;2023-02-01T18:45:57;6.00;67.30
14049;DHT22;7099;53.922;10.728;2023-02-01T18:50:04;6.00;66.70
14049;DHT22;7099;53.922;10.728;2023-02-01T18:54:13;6.00;66.70
14049;DHT22;7099;53.922;10.728;2023-02-01T18:58:18;6.00;66.70
14049;DHT22;7099;53.922;10.728;2023-02-01T19:02:25;6.00;66.70
14049;DHT22;7099;53.922;10.728;2023-02-01T19:06:31;5.90;66.20
14049;DHT22;7099;53.922;10.728;2023-02-01T19:10:37;5.90;66.40
14049;DHT22;7099;53.922;10.728;2023-02-01T19:14:42;5.90;66.50
14049;DHT22;7099;53.922;10.728;2023-02-01T19:18:51;5.90;66.90
14049;DHT22;7099;53.922;10.728;2023-02-01T19:22:58;5.90;66.90
14049;DHT22;7099;53.922;10.728;2023-02-01T19:27:03;5.80;66.80
14049;DHT22;7099;53.922;10.728;2023-02-01T19:31:09;5.80;66.90
14049;DHT22;7099;53.922;10.728;2023-02-01T19:35:17;5.70;66.80
14049;DHT22;7099;53.922;10.728;2023-02-01T19:39:23;5.70;66.70
14049;DHT22;7099;53.922;10.728;2023-02-01T19:43:29;5.70;66.70
14049;DHT22;7099;53.922;10.728;2023-02-01T19:47:35;5.70;66.90
14049;DHT22;7099;53.922;10.728;2023-02-01T19:51:41;5.70;66.60
14049;DHT22;7099;53.922;10.728;2023-02-01T19:55:49;5.70;67.00
14049;DHT22;7099;53.922;10.728;2023-02-01T19:59:54;5.60;67.10
14049;DHT22;7099;53.922;10.728;2023-02-01T20:04:00;5.60;67.40
14049;DHT22;7099;53.922;10.728;2023-02-01T20:08:11;5.60;67.50
14049;DHT22;7099;53.922;10.728;2023-02-01T20:12:17;5.50;67.60
14049;DHT22;7099;53.922;10.728;2023-02-01T20:16:23;5.50;67.80
14049;DHT22;7099;53.922;10.728;2023-02-01T20:20:29;5.50;68.00
14049;DHT22;7099;53.922;10.728;2023-02-01T20:24:35;5.50;68.00
14049;DHT22;7099;53.922;10.728;2023-02-01T20:28:41;5.40;68.00
14049;DHT22;7099;53.922;10.728;2023-02-01T20:32:50;5.50;68.10
14049;DHT22;7099;53.922;10.728;2023-02-01T20:36:56;5.40;68.00
14049;DHT22;7099;53.922;10.728;2023-02-01T20:41:07;5.40;68.00
14049;DHT22;7099;53.922;10.728;2023-02-01T20:45:13;5.40;68.20
14049;DHT22;7099;53.922;10.728;2023-02-01T20:49:19;5.40;68.40
14049;DHT22;7099;53.922;10.728;2023-02-01T20:53:25;5.40;68.50
14049;DHT22;7099;53.922;10.728;2023-02-01T20:57:31;5.40;68.40
14049;DHT22;7099;53.922;10.728;2023-02-01T21:01:37;5.50;68.50
14049;DHT22;7099;53.922;10.728;2023-02-01T21:05:57;5.50;68.50
14049;DHT22;7099;53.922;10.728;2023-02-01T21:10:04;5.50;68.70
14049;DHT22;7099;53.922;10.728;2023-02-01T21:14:11;5.60;68.80
14049;DHT22;7099;53.922;10.728;2023-02-01T21:18:17;5.50;69.00
14049;DHT22;7099;53.922;10.728;2023-02-01T21:22:23;5.60;69.50
14049;DHT22;7099;53.922;10.728;2023-02-01T21:26:28;5.60;69.80
14049;DHT22;7099;53.922;10.728;2023-02-01T21:30:45;5.60;70.20
14049;DHT22;7099;53.922;10.728;2023-02-01T21:34:50;5.60;70.80
14049;DHT22;7099;53.922;10.728;2023-02-01T21:38:56;5.60;71.10
14049;DHT22;7099;53.922;10.728;2023-02-01T21:43:07;5.70;71.70
14049;DHT22;7099;53.922;10.728;2023-02-01T21:47:15;5.70;71.80
14049;DHT22;7099;53.922;10.728;2023-02-01T21:51:21;5.60;71.80
14049;DHT22;7099;53.922;10.728;2023-02-01T21:55:27;5.70;71.60
14049;DHT22;7099;53.922;10.728;2023-02-01T21:59:33;5.70;71.30
14049;DHT22;7099;53.922;10.728;2023-02-01T22:03:40;5.70;71.00
14049;DHT22;7099;53.922;10.728;2023-02-01T22:07:45;5.70;71.00
14049;DHT22;7099;53.922;10.728;2023-02-01T22:11:52;5.70;71.20
14049;DHT22;7099;53.922;10.728;2023-02-01T22:15:58;5.70;71.20
14049;DHT22;7099;53.922;10.728;2023-02-01T22:20:04;5.70;71.00
14049;DHT22;7099;53.922;10.728;2023-02-01T22:24:13;5.70;71.30
14049;DHT22;7099;53.922;10.728;2023-02-01T22:28:20;5.70;71.80
14049;DHT22;7099;53.922;10.728;2023-02-01T22:32:37;5.70;72.00
14049;DHT22;7099;53.922;10.728;2023-02-01T22:36:43;5.70;72.50
14049;DHT22;7099;53.922;10.728;2023-02-01T22:40:56;5.80;72.80
14049;DHT22;7099;53.922;10.728;2023-02-01T22:45:03;5.80;72.60
14049;DHT22;7099;53.922;10.728;2023-02-01T22:49:09;5.80;72.20
14049;DHT22;7099;53.922;10.728;2023-02-01T22:53:14;5.90;71.70
14049;DHT22;7099;53.922;10.728;2023-02-01T22:57:20;6.00;71.40
14049;DHT22;7099;53.922;10.728;2023-02-01T23:01:26;6.00;71.20
14049;DHT22;7099;53.922;10.728;2023-02-01T23:05:32;6.00;71.10
14049;DHT22;7099;53.922;10.728;2023-02-01T23:09:37;6.10;71.00
14049;DHT22;7099;53.922;10.728;2023-02-01T23:13:43;6.10;71.10
14049;DHT22;7099;53.922;10.728;2023-02-01T23:17:48;6.10;71.60
14049;DHT22;7099;53.922;10.728;2023-02-01T23:21:54;6.10;70.80
14049;DHT22;7099;53.922;10.728;2023-02-01T23:25:59;6.20;70.70
14049;DHT22;7099;53.922;10.728;2023-02-01T23:30:06;6.20;70.30
14049;DHT22;7099;53.922;10.728;2023-02-01T23:34:12;6.20;70.10
14049;DHT22;7099;53.922;10.728;2023-02-01T23:38:17;6.30;70.00
14049;DHT22;7099;53.922;10.728;2023-02-01T23:42:25;6.30;69.80
14049;DHT22;7099;53.922;10.728;2023-02-01T23:46:33;6.30;69.70
14049;DHT22;7099;53.922;10.728;2023-02-01T23:50:40;6.40;69.50
14049;DHT22;7099;53.922;10.728;2023-02-01T23:54:45;6.30;69.30
14049;DHT22;7099;53.922;10.728;2023-02-01T23:58:52;6.40;69.40
